sensor_id;sensor_type;location;lat;lon;timestamp;pressure;altitude;pressure_sealevel;temperature;humidity
69593;BME280;56796;50.122;14.468;2023-04-01T00:09:51;963.09;;;9.39;87.86
69593;BME280;56796;50.122;14.468;2023-04-01T00:29:18;963.07;;;9.41;86.95
69593;BME280;56796;50.122;14.468;2023-04-01T00:48:48;962.97;;;9.31;86.81
69593;BME280;56796;50.122;14.468;2023-04-01T01:08:10;962.93;;;9.1;87.79
69593;BME280;56796;50.122;14.468;2023-04-01T01:27:31;963.01;;;8.93;88.66
69593;BME280;56796;50.122;14.468;2023-04-01T01:47:00;962.94;;;8.89;89.09
69593;BME280;56796;50.122;14.468;2023-04-01T02:06:20;963;;;8.88;89.55
69593;BME280;56796;50.122;14.468;2023-04-01T02:25:45;962.97;;;8.83;90.5
69593;BME280;56796;50.122;14.468;2023-04-01T02:45:13;963.11;;;8.74;91.16
69593;BME280;56796;50.122;14.468;2023-04-01T03:04:40;963.29;;;8.71;91.45
69593;BME280;56796;50.122;14.468;2023-04-01T03:24:07;963.42;;;8.74;91.06
69593;BME280;56796;50.122;14.468;2023-04-01T03:43:34;963.51;;;8.79;90.46
69593;BME280;56796;50.122;14.468;2023-04-01T04:03:02;963.6;;;8.79;89.95
69593;BME280;56796;50.122;14.468;2023-04-01T04:22:27;963.73;;;8.84;89.2
69593;BME280;56796;50.122;14.468;2023-04-01T04:41:57;963.88;;;8.82;88.88
69593;BME280;56796;50.122;14.468;2023-04-01T05:01:17;963.91;;;8.82;88.76
69593;BME280;56796;50.122;14.468;2023-04-01T05:20:46;964.01;;;8.85;88.85
69593;BME280;56796;50.122;14.468;2023-04-01T05:40:10;964.09;;;9.02;88.14
69593;BME280;56796;50.122;14.468;2023-04-01T05:59:38;964.1;;;9.17;87.06
69593;BME280;56796;50.122;14.468;2023-04-01T06:19:09;964.22;;;9.3;86.46
69593;BME280;56796;50.122;14.468;2023-04-01T06:38:35;964.27;;;9.87;84.45
69593;BME280;56796;50.122;14.468;2023-04-01T06:58:00;964.36;;;10.13;82.82
69593;BME280;56796;50.122;14.468;2023-04-01T07:17:28;964.41;;;9.85;85.05
69593;BME280;56796;50.122;14.468;2023-04-01T07:36:56;964.6;;;10.07;84.49
69593;BME280;56796;50.122;14.468;2023-04-01T07:56:22;964.6;;;9.91;85.58
69593;BME280;56796;50.122;14.468;2023-04-01T08:15:49;964.68;;;10.49;82.78
69593;BME280;56796;50.122;14.468;2023-04-01T08:35:17;964.77;;;11.38;77.48
69593;BME280;56796;50.122;14.468;2023-04-01T08:54:46;964.8;;;11.56;76.19
69593;BME280;56796;50.122;14.468;2023-04-01T09:52:58;964.9;;;11.88;72.83
69593;BME280;56796;50.122;14.468;2023-04-01T10:51:20;964.87;;;13.02;67.43
69593;BME280;56796;50.122;14.468;2023-04-01T11:49:41;964.79;;;13.2;66.8
69593;BME280;56796;50.122;14.468;2023-04-01T12:09:04;964.9;;;13.1;66.11
69593;BME280;56796;50.122;14.468;2023-04-01T12:28:35;965.06;;;13.15;66.52
69593;BME280;56796;50.122;14.468;2023-04-01T13:07:35;965.02;;;15.06;61.39
69593;BME280;56796;50.122;14.468;2023-04-01T13:26:59;965.15;;;14.06;62.47
69593;BME280;56796;50.122;14.468;2023-04-01T13:46:27;965.08;;;13.62;64.9
69593;BME280;56796;50.122;14.468;2023-04-01T14:05:44;964.94;;;13.65;64.55
69593;BME280;56796;50.122;14.468;2023-04-01T14:44:38;965.16;;;12.7;68.85
69593;BME280;56796;50.122;14.468;2023-04-01T15:04:02;965.29;;;12.81;69.22
69593;BME280;56796;50.122;14.468;2023-04-01T15:23:25;965.4;;;12.59;70.14
69593;BME280;56796;50.122;14.468;2023-04-01T15:42:51;965.55;;;12.43;70.31
69593;BME280;56796;50.122;14.468;2023-04-01T16:02:13;965.68;;;12.42;71.25
69593;BME280;56796;50.122;14.468;2023-04-01T16:21:43;965.77;;;11.94;73.26
69593;BME280;56796;50.122;14.468;2023-04-01T16:41:05;965.97;;;11.82;74.28
69593;BME280;56796;50.122;14.468;2023-04-01T17:00:26;966.24;;;11.32;73.63
69593;BME280;56796;50.122;14.468;2023-04-01T17:19:55;966.49;;;10.82;77.18
69593;BME280;56796;50.122;14.468;2023-04-01T17:39:19;966.72;;;10.51;79.82
69593;BME280;56796;50.122;14.468;2023-04-01T17:58:44;966.88;;;10.35;81.91
69593;BME280;56796;50.122;14.468;2023-04-01T18:18:11;967.11;;;10.21;84.36
69593;BME280;56796;50.122;14.468;2023-04-01T18:37:36;967.31;;;10.1;84.87
69593;BME280;56796;50.122;14.468;2023-04-01T18:57:01;967.5;;;9.93;84.69
69593;BME280;56796;50.122;14.468;2023-04-01T19:16:30;967.69;;;9.85;85.82
69593;BME280;56796;50.122;14.468;2023-04-01T19:35:54;967.79;;;9.6;88.13
69593;BME280;56796;50.122;14.468;2023-04-01T19:55:21;967.92;;;9.41;90.56
69593;BME280;56796;50.122;14.468;2023-04-01T20:14:46;968.11;;;9.34;91.16
69593;BME280;56796;50.122;14.468;2023-04-01T20:34:15;968.2;;;9.34;91.68
69593;BME280;56796;50.122;14.468;2023-04-01T20:53:40;968.2;;;9.21;92.73
69593;BME280;56796;50.122;14.468;2023-04-01T21:13:07;968.28;;;9.1;93.76
69593;BME280;56796;50.122;14.468;2023-04-01T21:32:33;968.52;;;9.08;93.69
69593;BME280;56796;50.122;14.468;2023-04-01T22:11:23;968.67;;;8.99;94.44
69593;BME280;56796;50.122;14.468;2023-04-01T22:30:48;968.79;;;8.99;94.63
69593;BME280;56796;50.122;14.468;2023-04-01T22:50:16;968.88;;;9;94.86
69593;BME280;56796;50.122;14.468;2023-04-01T23:09:41;968.97;;;9.01;95.12
69593;BME280;56796;50.122;14.468;2023-04-01T23:29:11;969.13;;;9.07;95.26
69593;BME280;56796;50.122;14.468;2023-04-01T23:48:35;969.33;;;8.97;96.44
